Time;durP1;ratioP1;P1;durP2;ratioP2;P2;SDS_P1;SDS_P2;PMS_P1;PMS_P2;Temp;Humidity;BMP_temperature;BMP_pressure;BME280_temperature;BME280_humidity;BME280_pressure;Samples;Min_cycle;Max_cycle;Signal;HPM_P1;HPM_P2
2022/12/06 00:00:40;;;;;;;5.50;1.25;;;;;;;;;;4994051;28;20033;-76
2022/12/06 00:03:06;;;;;;;5.22;0.85;;;;;;;;;;4994256;28;20026;-76
2022/12/06 00:05:32;;;;;;;3.50;1.52;;;;;;;;;;4994148;28;20030;-76
2022/12/06 00:07:58;;;;;;;7.97;1.60;;;;;;;;;;4994138;28;20093;-76
2022/12/06 00:10:24;;;;;;;4.85;1.48;;;;;;;;;;4994127;28;20022;-76
2022/12/06 00:12:50;;;;;;;4.78;1.00;;;;;;;;;;4994388;28;20030;-76
2022/12/06 00:15:16;;;;;;;4.50;1.48;;;;;;;;;;4993938;28;20030;-76
2022/12/06 00:17:42;;;;;;;5.05;1.33;;;;;;;;;;4994136;28;20098;-75
2022/12/06 00:20:09;;;;;;;4.70;1.65;;;;;;;;;;4994036;28;20097;-76
2022/12/06 00:22:35;;;;;;;2.95;1.40;;;;;;;;;;4994069;28;20029;-76
2022/12/06 00:25:01;;;;;;;7.40;1.27;;;;;;;;;;4976432;28;20710;-75
2022/12/06 00:27:27;;;;;;;5.10;1.17;;;;;;;;;;4993939;28;20089;-76
2022/12/06 00:29:53;;;;;;;3.92;1.08;;;;;;;;;;4976508;28;20070;-76
2022/12/06 00:32:19;;;;;;;3.72;1.00;;;;;;;;;;4993855;28;20027;-76
2022/12/06 00:34:45;;;;;;;3.72;1.10;;;;;;;;;;4993898;28;20027;-76
2022/12/06 00:37:11;;;;;;;3.15;0.98;;;;;;;;;;4993893;28;20033;-76
2022/12/06 00:39:37;;;;;;;4.07;1.40;;;;;;;;;;4993963;28;20023;-76
2022/12/06 00:42:04;;;;;;;6.75;1.17;;;;;;;;;;4993644;28;20054;-75
2022/12/06 00:44:30;;;;;;;2.72;0.88;;;;;;;;;;4993980;28;20165;-76
2022/12/06 00:46:56;;;;;;;3.95;1.05;;;;;;;;;;4993633;28;20484;-76
2022/12/06 00:49:21;;;;;;;2.53;0.90;;;;;;;;;;4993865;28;20050;-75
2022/12/06 00:51:47;;;;;;;1.02;0.43;;;;;;;;;;4993784;28;20022;-75
2022/12/06 00:54:14;;;;;;;2.70;0.98;;;;;;;;;;4996922;28;20057;-75
2022/12/06 00:56:41;;;;;;;1.98;0.70;;;;;;;;;;4997356;28;20034;-76
2022/12/06 00:59:07;;;;;;;4.13;0.90;;;;;;;;;;4997365;28;20109;-76
2022/12/06 01:01:34;;;;;;;1.85;0.90;;;;;;;;;;4997173;28;20054;-76
2022/12/06 01:04:02;;;;;;;3.40;0.90;;;;;;;;;;4997257;28;20019;-75
2022/12/06 01:06:29;;;;;;;3.38;1.10;;;;;;;;;;4997145;28;20034;-75
2022/12/06 01:08:56;;;;;;;4.32;1.10;;;;;;;;;;4997180;28;20029;-76
2022/12/06 01:11:23;;;;;;;1.63;0.80;;;;;;;;;;4997015;28;20378;-75
2022/12/06 01:13:49;;;;;;;3.53;0.85;;;;;;;;;;4997076;28;20022;-76
2022/12/06 01:16:16;;;;;;;6.78;1.23;;;;;;;;;;4997284;28;20030;-75
2022/12/06 01:18:43;;;;;;;3.22;1.08;;;;;;;;;;4997017;28;20030;-76
2022/12/06 01:21:18;;;;;;;4.15;1.05;;;;;;;;;;4996973;28;20512;-76
2022/12/06 01:23:45;;;;;;;5.03;0.90;;;;;;;;;;4997032;28;20041;-75
2022/12/06 01:26:15;;;;;;;2.15;1.00;;;;;;;;;;4996727;28;20516;-76
2022/12/06 01:28:41;;;;;;;5.50;1.00;;;;;;;;;;4997195;28;20026;-76
2022/12/06 01:31:08;;;;;;;3.20;1.38;;;;;;;;;;4996662;28;20101;-76
2022/12/06 01:33:34;;;;;;;1.90;0.98;;;;;;;;;;4996711;28;20081;-76
2022/12/06 01:36:00;;;;;;;4.30;1.17;;;;;;;;;;4996583;28;20028;-75
2022/12/06 01:38:26;;;;;;;3.88;0.98;;;;;;;;;;4996657;28;20105;-76
2022/12/06 01:40:52;;;;;;;2.75;1.13;;;;;;;;;;4996640;28;20031;-76
2022/12/06 01:43:38;;;;;;;2.60;1.27;;;;;;;;;;4996476;28;20026;-75
2022/12/06 01:46:09;;;;;;;3.25;1.45;;;;;;;;;;4996520;28;20033;-75
2022/12/06 01:48:37;;;;;;;3.00;1.02;;;;;;;;;;4996358;28;20023;-74
2022/12/06 01:51:03;;;;;;;3.22;0.88;;;;;;;;;;4996526;28;20056;-76
2022/12/06 01:53:31;;;;;;;4.70;1.10;;;;;;;;;;4996034;28;20062;-75
2022/12/06 01:55:57;;;;;;;3.38;1.10;;;;;;;;;;4996399;28;20027;-76
2022/12/06 01:58:26;;;;;;;1.90;1.20;;;;;;;;;;4996287;28;20026;-76
2022/12/06 02:00:53;;;;;;;1.67;1.40;;;;;;;;;;4996412;28;20105;-76
2022/12/06 02:03:21;;;;;;;3.17;1.50;;;;;;;;;;4996209;28;20026;-75
2022/12/06 02:05:47;;;;;;;5.05;1.10;;;;;;;;;;4995553;28;20027;-76
2022/12/06 02:08:14;;;;;;;5.13;1.50;;;;;;;;;;4995856;28;20034;-75
2022/12/06 02:10:40;;;;;;;3.22;1.17;;;;;;;;;;4996226;28;20035;-76
2022/12/06 02:13:06;;;;;;;3.88;1.13;;;;;;;;;;4995794;28;20429;-76
2022/12/06 02:15:38;;;;;;;2.50;1.02;;;;;;;;;;4978443;28;20018;-76
2022/12/06 02:18:27;;;;;;;1.40;1.10;;;;;;;;;;4995845;28;20065;-75
2022/12/06 02:21:03;;;;;;;3.38;1.67;;;;;;;;;;4995981;28;20066;-76
2022/12/06 02:23:39;;;;;;;3.30;1.40;;;;;;;;;;4995669;28;20031;-76
2022/12/06 02:26:17;;;;;;;5.35;1.50;;;;;;;;;;4995554;28;20026;-76
2022/12/06 02:29:03;;;;;;;4.15;1.70;;;;;;;;;;4995641;28;20030;-76
2022/12/06 02:31:36;;;;;;;2.60;1.75;;;;;;;;;;4995786;28;20469;-76
2022/12/06 02:34:06;;;;;;;7.63;1.55;;;;;;;;;;4995519;28;20645;-75
2022/12/06 02:36:38;;;;;;;3.75;1.45;;;;;;;;;;4995674;28;20130;-75
2022/12/06 02:39:20;;;;;;;6.45;1.95;;;;;;;;;;4995515;28;20037;-76
2022/12/06 02:41:52;;;;;;;4.57;1.58;;;;;;;;;;4995484;28;20030;-75
2022/12/06 02:44:23;;;;;;;4.28;1.35;;;;;;;;;;4995331;28;20080;-75
2022/12/06 02:46:50;;;;;;;2.35;1.20;;;;;;;;;;4995355;28;20037;-76
2022/12/06 02:49:17;;;;;;;4.63;1.50;;;;;;;;;;4995265;28;20528;-76
2022/12/06 02:51:46;;;;;;;3.70;1.35;;;;;;;;;;4995366;28;20409;-76
2022/12/06 02:54:12;;;;;;;3.13;1.27;;;;;;;;;;4995447;28;20050;-76
2022/12/06 02:56:38;;;;;;;3.72;1.00;;;;;;;;;;4995204;28;20488;-76
2022/12/06 02:59:04;;;;;;;3.25;1.55;;;;;;;;;;4994942;28;20038;-76
2022/12/06 03:01:31;;;;;;;5.45;1.40;;;;;;;;;;4995449;28;20134;-75
2022/12/06 03:04:00;;;;;;;3.00;1.00;;;;;;;;;;4994949;28;20097;-75
2022/12/06 03:06:48;;;;;;;1.33;0.80;;;;;;;;;;4994847;28;20125;-75
2022/12/06 03:09:21;;;;;;;3.10;0.90;;;;;;;;;;4995054;28;20469;-76
2022/12/06 03:12:04;;;;;;;1.85;0.88;;;;;;;;;;4994953;28;20033;-76
2022/12/06 03:14:36;;;;;;;1.50;1.20;;;;;;;;;;4995192;28;20393;-76
2022/12/06 03:17:18;;;;;;;4.30;1.17;;;;;;;;;;4994059;28;20085;-75
2022/12/06 03:19:48;;;;;;;2.22;0.70;;;;;;;;;;4994798;28;20034;-76
2022/12/06 03:22:19;;;;;;;1.95;1.10;;;;;;;;;;4994843;28;20027;-76
2022/12/06 03:24:45;;;;;;;5.25;1.00;;;;;;;;;;4977436;28;20023;-76
2022/12/06 03:27:15;;;;;;;3.10;1.20;;;;;;;;;;4994642;28;20030;-75
2022/12/06 03:29:44;;;;;;;2.85;0.90;;;;;;;;;;4994621;28;20106;-75
2022/12/06 03:32:12;;;;;;;1.08;0.40;;;;;;;;;;4994281;28;20034;-76
2022/12/06 03:34:40;;;;;;;0.60;0.47;;;;;;;;;;4994510;28;20512;-75
2022/12/06 03:37:09;;;;;;;1.10;0.60;;;;;;;;;;4982610;28;20037;-76
2022/12/06 03:39:38;;;;;;;1.00;0.40;;;;;;;;;;4975147;28;20027;-75
2022/12/06 03:42:04;;;;;;;0.70;0.60;;;;;;;;;;4975020;28;20481;-75
2022/12/06 03:44:30;;;;;;;0.85;0.40;;;;;;;;;;4957627;28;20043;-75
2022/12/06 03:47:00;;;;;;;2.53;0.77;;;;;;;;;;4975261;28;20037;-76
2022/12/06 03:49:28;;;;;;;2.45;0.40;;;;;;;;;;4974641;28;20026;-75
2022/12/06 03:51:54;;;;;;;1.45;0.70;;;;;;;;;;4974937;28;20474;-76
2022/12/06 03:54:20;;;;;;;1.38;0.90;;;;;;;;;;4974532;28;20086;-75
2022/12/06 03:56:46;;;;;;;5.00;0.80;;;;;;;;;;4974900;28;20033;-75
2022/12/06 03:59:12;;;;;;;1.40;0.60;;;;;;;;;;4974844;28;20107;-75
2022/12/06 04:01:39;;;;;;;1.67;0.70;;;;;;;;;;4974849;28;20122;-75
2022/12/06 04:04:05;;;;;;;4.32;0.77;;;;;;;;;;4974788;28;20358;-76
2022/12/06 04:06:31;;;;;;;1.88;0.98;;;;;;;;;;4974727;28;20088;-76
2022/12/06 04:09:51;;;;;;;6.60;1.33;;;;;;;;;;4974773;28;20027;-76
2022/12/06 04:11:43;;;;;;;2.30;1.05;;;;;;;;;;4974911;28;20382;-76
2022/12/06 04:14:09;;;;;;;3.13;1.00;;;;;;;;;;4974341;28;20485;-76
2022/12/06 04:19:20;;;;;;;2.42;1.10;;;;;;;;;;4974734;28;20038;-75
2022/12/06 04:24:30;;;;;;;1.23;0.70;;;;;;;;;;4975018;28;20038;-75
2022/12/06 04:40:43;;;;;;;4.07;1.50;;;;;;;;;;4978234;28;20426;-75
2022/12/06 04:45:54;;;;;;;5.93;1.52;;;;;;;;;;4994623;28;20537;-75
2022/12/06 04:48:21;;;;;;;3.72;1.40;;;;;;;;;;4994636;28;20036;-76
2022/12/06 04:50:47;;;;;;;3.03;1.77;;;;;;;;;;4991602;28;20524;-76
2022/12/06 04:53:13;;;;;;;6.90;2.05;;;;;;;;;;4997226;28;20080;-76
2022/12/06 04:55:44;;;;;;;2.13;1.45;;;;;;;;;;4997533;28;20082;-76
2022/12/06 04:58:10;;;;;;;4.10;1.40;;;;;;;;;;4997386;28;20088;-76
2022/12/06 05:00:36;;;;;;;3.13;1.27;;;;;;;;;;4997276;28;20030;-75
2022/12/06 05:03:02;;;;;;;6.72;1.52;;;;;;;;;;4997291;28;20026;-76
2022/12/06 05:05:28;;;;;;;3.63;1.17;;;;;;;;;;4997230;28;20453;-76
2022/12/06 05:07:54;;;;;;;3.33;1.40;;;;;;;;;;4997259;28;20034;-75
2022/12/06 05:10:20;;;;;;;3.38;1.17;;;;;;;;;;4996905;28;20058;-75
2022/12/06 05:12:46;;;;;;;5.22;1.10;;;;;;;;;;4997167;28;20026;-76
2022/12/06 05:15:12;;;;;;;3.70;1.30;;;;;;;;;;4997029;28;20110;-76
2022/12/06 05:17:38;;;;;;;4.90;1.45;;;;;;;;;;4996849;28;20053;-76
2022/12/06 05:20:04;;;;;;;2.90;1.08;;;;;;;;;;4996869;28;20026;-76
2022/12/06 05:22:33;;;;;;;1.85;0.90;;;;;;;;;;4996991;28;20058;-76
2022/12/06 05:24:59;;;;;;;1.85;1.10;;;;;;;;;;4996831;28;20550;-75
2022/12/06 05:27:25;;;;;;;2.90;1.27;;;;;;;;;;4986500;28;20035;-75
2022/12/06 05:29:51;;;;;;;2.65;1.05;;;;;;;;;;4987032;28;20578;-75
2022/12/06 05:32:17;;;;;;;3.53;1.00;;;;;;;;;;4987542;28;20030;-76
2022/12/06 05:34:43;;;;;;;1.80;1.20;;;;;;;;;;4995548;28;20037;-75
2022/12/06 05:37:09;;;;;;;4.53;1.40;;;;;;;;;;4988023;28;20034;-75
2022/12/06 05:39:35;;;;;;;2.47;1.10;;;;;;;;;;4993116;28;20033;-75
2022/12/06 05:42:01;;;;;;;3.53;1.20;;;;;;;;;;4982326;28;20031;-76
2022/12/06 05:44:27;;;;;;;4.35;1.40;;;;;;;;;;4977500;28;20109;-75
2022/12/06 05:46:53;;;;;;;3.00;1.50;;;;;;;;;;4976925;28;20109;-75
2022/12/06 05:49:19;;;;;;;2.47;1.40;;;;;;;;;;4977094;28;20035;-75
2022/12/06 05:51:45;;;;;;;7.95;1.55;;;;;;;;;;4976870;28;20023;-75
2022/12/06 05:54:11;;;;;;;2.60;1.50;;;;;;;;;;4976579;28;20121;-75
2022/12/06 05:56:38;;;;;;;3.25;1.13;;;;;;;;;;4977220;28;20062;-75
2022/12/06 05:59:04;;;;;;;4.20;1.70;;;;;;;;;;4977200;28;20030;-75
2022/12/06 06:01:30;;;;;;;2.92;1.38;;;;;;;;;;4976750;28;20027;-76
2022/12/06 06:03:56;;;;;;;5.03;1.83;;;;;;;;;;4972085;28;20469;-76
2022/12/06 06:06:22;;;;;;;5.75;1.92;;;;;;;;;;4995913;28;20057;-75
2022/12/06 06:08:49;;;;;;;7.15;2.65;;;;;;;;;;4996282;28;20073;-75
2022/12/06 06:11:15;;;;;;;6.75;3.00;;;;;;;;;;4995952;28;20015;-75
2022/12/06 06:13:41;;;;;;;4.82;2.50;;;;;;;;;;4995704;28;20033;-75
2022/12/06 06:16:07;;;;;;;7.78;2.92;;;;;;;;;;4995910;28;20022;-75
2022/12/06 06:18:33;;;;;;;6.55;3.40;;;;;;;;;;4995924;28;20479;-76
2022/12/06 06:20:59;;;;;;;10.32;5.47;;;;;;;;;;4995664;28;20026;-76
2022/12/06 06:23:26;;;;;;;12.15;6.05;;;;;;;;;;4995960;28;20062;-76
2022/12/06 06:25:53;;;;;;;13.50;5.63;;;;;;;;;;4995753;28;20377;-76
2022/12/06 06:28:19;;;;;;;15.18;6.35;;;;;;;;;;4995607;28;20022;-75
2022/12/06 06:30:45;;;;;;;11.57;5.50;;;;;;;;;;4993744;28;20030;-76
2022/12/06 06:33:11;;;;;;;10.63;5.60;;;;;;;;;;4976226;28;20019;-75
2022/12/06 06:35:37;;;;;;;9.88;4.50;;;;;;;;;;4976104;28;20023;-75
2022/12/06 06:38:03;;;;;;;7.10;3.92;;;;;;;;;;4976103;28;20042;-75
2022/12/06 06:40:30;;;;;;;12.48;3.40;;;;;;;;;;4958797;28;20023;-75
2022/12/06 06:42:56;;;;;;;6.05;2.63;;;;;;;;;;4976023;28;20026;-75
2022/12/06 06:45:23;;;;;;;5.57;2.75;;;;;;;;;;4976608;28;20030;-75
2022/12/06 06:47:49;;;;;;;3.88;2.40;;;;;;;;;;4976335;28;20062;-75
2022/12/06 06:50:16;;;;;;;5.63;2.33;;;;;;;;;;4976004;28;20038;-75
2022/12/06 06:52:42;;;;;;;4.45;2.65;;;;;;;;;;4975471;28;20544;-75
2022/12/06 06:55:08;;;;;;;6.00;2.10;;;;;;;;;;4975701;28;20039;-75
2022/12/06 06:57:35;;;;;;;8.07;2.92;;;;;;;;;;4975851;28;20070;-75
2022/12/06 07:00:01;;;;;;;7.13;2.85;;;;;;;;;;4975806;28;20030;-75
2022/12/06 07:02:27;;;;;;;7.70;3.60;;;;;;;;;;4993750;28;20027;-75
2022/12/06 07:04:53;;;;;;;7.50;3.20;;;;;;;;;;4995138;28;20026;-75
2022/12/06 07:07:19;;;;;;;6.07;3.33;;;;;;;;;;4994852;28;20034;-75
2022/12/06 07:09:45;;;;;;;9.07;2.85;;;;;;;;;;4994176;28;20029;-75
2022/12/06 07:12:13;;;;;;;6.43;2.70;;;;;;;;;;4994839;28;20108;-75
2022/12/06 07:14:39;;;;;;;8.68;2.80;;;;;;;;;;4979591;28;20027;-75
2022/12/06 07:17:05;;;;;;;4.78;2.42;;;;;;;;;;4975354;28;20035;-75
2022/12/06 07:19:31;;;;;;;7.85;2.33;;;;;;;;;;4975336;28;20114;-75
2022/12/06 07:21:57;;;;;;;4.80;2.40;;;;;;;;;;4975268;28;20023;-75
2022/12/06 07:24:23;;;;;;;5.60;2.13;;;;;;;;;;4975247;28;20030;-75
2022/12/06 07:26:49;;;;;;;5.60;2.40;;;;;;;;;;4983779;28;20484;-75
2022/12/06 07:29:15;;;;;;;4.35;1.90;;;;;;;;;;4994617;28;20110;-75
2022/12/06 07:31:40;;;;;;;8.15;1.98;;;;;;;;;;4994630;28;20105;-75
2022/12/06 07:34:06;;;;;;;5.05;2.17;;;;;;;;;;4994464;28;20105;-75
2022/12/06 07:36:33;;;;;;;6.20;1.92;;;;;;;;;;4994419;28;20077;-75
2022/12/06 07:38:59;;;;;;;4.68;2.55;;;;;;;;;;4994346;28;20026;-74
2022/12/06 07:46:56;;;;;;;5.75;2.05;;;;;;;;;;4975024;28;20065;-75
2022/12/06 07:49:22;;;;;;;5.50;2.08;;;;;;;;;;4975171;28;20038;-75
2022/12/06 07:51:48;;;;;;;5.65;2.10;;;;;;;;;;4974993;28;20534;-75
2022/12/06 07:54:15;;;;;;;2.85;1.63;;;;;;;;;;4984142;28;20125;-75
2022/12/06 07:56:42;;;;;;;5.93;2.30;;;;;;;;;;4993807;28;20106;-75
2022/12/06 07:59:08;;;;;;;5.18;2.05;;;;;;;;;;4994158;28;20470;-75
2022/12/06 08:01:34;;;;;;;3.42;1.80;;;;;;;;;;4993894;28;20077;-75
2022/12/06 08:04:01;;;;;;;4.95;2.10;;;;;;;;;;4993812;28;20041;-75
2022/12/06 08:06:27;;;;;;;15.50;3.28;;;;;;;;;;4990996;28;20026;-75
2022/12/06 08:08:53;;;;;;;6.68;2.78;;;;;;;;;;4974784;28;20031;-75
2022/12/06 08:11:21;;;;;;;6.20;2.67;;;;;;;;;;4984484;28;20369;-75
2022/12/06 08:13:47;;;;;;;5.38;2.78;;;;;;;;;;4994342;28;20505;-75
2022/12/06 08:16:13;;;;;;;11.25;3.05;;;;;;;;;;4994028;28;20160;-75
2022/12/06 08:18:39;;;;;;;6.00;3.25;;;;;;;;;;4976602;28;20061;-75
2022/12/06 08:21:06;;;;;;;6.45;3.60;;;;;;;;;;4994178;28;20044;-75
2022/12/06 08:23:32;;;;;;;5.07;3.10;;;;;;;;;;4991814;28;20512;-75
2022/12/06 08:25:58;;;;;;;6.90;2.90;;;;;;;;;;4987724;28;20493;-75
2022/12/06 08:28:24;;;;;;;4.85;2.42;;;;;;;;;;4993855;28;20022;-75
2022/12/06 08:30:50;;;;;;;5.50;2.53;;;;;;;;;;4993925;28;20116;-75
2022/12/06 08:33:16;;;;;;;6.20;3.10;;;;;;;;;;4993874;28;20077;-75
2022/12/06 08:35:42;;;;;;;5.60;2.25;;;;;;;;;;4987259;28;20519;-75
2022/12/06 08:38:08;;;;;;;6.00;3.40;;;;;;;;;;4981664;28;20063;-75
2022/12/06 08:40:34;;;;;;;13.18;5.00;;;;;;;;;;4985807;28;20390;-75
2022/12/06 08:43:00;;;;;;;19.73;7.10;;;;;;;;;;4984829;28;20109;-75
2022/12/06 08:45:26;;;;;;;19.15;6.85;;;;;;;;;;4984273;28;20117;-75
2022/12/06 08:47:52;;;;;;;18.02;6.45;;;;;;;;;;4979641;28;20050;-75
2022/12/06 08:50:18;;;;;;;16.83;6.47;;;;;;;;;;4979244;28;20053;-75
2022/12/06 08:52:44;;;;;;;16.15;6.03;;;;;;;;;;4979501;28;20050;-75
2022/12/06 08:55:10;;;;;;;14.48;5.43;;;;;;;;;;4978784;28;20085;-75
2022/12/06 08:57:36;;;;;;;12.80;4.47;;;;;;;;;;4981156;28;20469;-75
2022/12/06 09:00:03;;;;;;;9.25;4.05;;;;;;;;;;4986113;28;20033;-75
2022/12/06 09:02:29;;;;;;;10.57;4.18;;;;;;;;;;4983310;28;20029;-75
2022/12/06 09:04:55;;;;;;;6.75;3.63;;;;;;;;;;4982880;28;20102;-76
2022/12/06 09:07:22;;;;;;;8.00;3.50;;;;;;;;;;4981916;28;20035;-75
2022/12/06 09:09:48;;;;;;;5.20;3.35;;;;;;;;;;4981464;28;20462;-75
2022/12/06 09:12:14;;;;;;;8.52;3.05;;;;;;;;;;4974190;28;20037;-75
2022/12/06 09:14:40;;;;;;;6.47;3.03;;;;;;;;;;4974784;28;20436;-75
2022/12/06 09:17:06;;;;;;;4.75;2.88;;;;;;;;;;4985500;28;20030;-75
2022/12/06 09:19:33;;;;;;;5.53;2.38;;;;;;;;;;4986585;28;20018;-75
2022/12/06 09:21:59;;;;;;;6.40;2.20;;;;;;;;;;4987565;28;20374;-75
2022/12/06 09:24:25;;;;;;;4.90;2.28;;;;;;;;;;4970231;28;20027;-75
2022/12/06 09:26:51;;;;;;;5.43;2.40;;;;;;;;;;4988295;28;20026;-75
2022/12/06 09:29:18;;;;;;;4.38;2.30;;;;;;;;;;4996744;28;20101;-75
2022/12/06 09:31:44;;;;;;;6.25;2.30;;;;;;;;;;4996775;28;20030;-75
2022/12/06 09:34:11;;;;;;;2.42;1.70;;;;;;;;;;4996678;28;20023;-75
2022/12/06 09:36:39;;;;;;;4.75;2.00;;;;;;;;;;4996802;28;20489;-75
2022/12/06 09:39:09;;;;;;;6.82;1.60;;;;;;;;;;4996771;28;20059;-75
2022/12/06 09:41:38;;;;;;;4.00;1.50;;;;;;;;;;4978754;28;20065;-75
2022/12/06 09:44:07;;;;;;;4.78;1.70;;;;;;;;;;4995188;28;20033;-75
2022/12/06 09:46:36;;;;;;;7.30;1.60;;;;;;;;;;4995151;28;20085;-75
2022/12/06 09:49:18;;;;;;;4.38;1.30;;;;;;;;;;4976050;28;20037;-75
2022/12/06 09:51:45;;;;;;;5.28;1.60;;;;;;;;;;4976087;28;20035;-75
2022/12/06 09:54:32;;;;;;;3.88;1.50;;;;;;;;;;4977120;28;20046;-75
2022/12/06 09:57:01;;;;;;;6.95;1.85;;;;;;;;;;4977127;28;20492;-75
2022/12/06 09:59:33;;;;;;;4.15;1.65;;;;;;;;;;4976835;28;20023;-75
2022/12/06 10:02:11;;;;;;;4.93;1.80;;;;;;;;;;4976916;28;20108;-75
2022/12/06 10:05:06;;;;;;;3.97;1.88;;;;;;;;;;4976698;28;20035;-75
2022/12/06 10:07:38;;;;;;;3.42;1.58;;;;;;;;;;4923910;28;20100;-75
2022/12/06 10:10:31;;;;;;;4.80;1.55;;;;;;;;;;4976623;28;20067;-75
2022/12/06 10:13:05;;;;;;;6.10;1.40;;;;;;;;;;4992398;28;20238;-75
2022/12/06 10:15:31;;;;;;;4.82;1.90;;;;;;;;;;4995889;28;20076;-75
2022/12/06 10:17:58;;;;;;;3.60;1.55;;;;;;;;;;4995651;28;20026;-76
2022/12/06 10:20:30;;;;;;;7.20;2.17;;;;;;;;;;4982771;28;20044;-75
2022/12/06 10:23:12;;;;;;;5.60;1.20;;;;;;;;;;4984822;28;20035;-75
2022/12/06 10:25:53;;;;;;;2.13;1.00;;;;;;;;;;4983948;28;20037;-76
2022/12/06 10:28:25;;;;;;;3.25;1.40;;;;;;;;;;4986901;28;20030;-76
2022/12/06 10:30:52;;;;;;;6.13;1.65;;;;;;;;;;4995469;28;20070;-76
2022/12/06 10:33:31;;;;;;;2.67;1.13;;;;;;;;;;4978113;28;20042;-76
2022/12/06 10:36:01;;;;;;;6.28;2.30;;;;;;;;;;4958796;28;20027;-76
2022/12/06 10:38:30;;;;;;;6.50;2.00;;;;;;;;;;4977145;28;20037;-75
2022/12/06 10:40:59;;;;;;;10.63;2.22;;;;;;;;;;4978733;28;20027;-75
2022/12/06 10:43:28;;;;;;;8.50;2.72;;;;;;;;;;4993264;28;20050;-75
2022/12/06 10:48:59;;;;;;;5.15;1.45;;;;;;;;;;4995412;28;20393;-75
2022/12/06 10:51:30;;;;;;;6.32;1.52;;;;;;;;;;4995000;28;20030;-75
2022/12/06 10:53:58;;;;;;;4.40;1.60;;;;;;;;;;4979867;28;20197;-75
2022/12/06 10:56:27;;;;;;;2.60;0.80;;;;;;;;;;4975773;28;20038;-75
2022/12/06 10:58:58;;;;;;;3.50;0.82;;;;;;;;;;4975672;28;20058;-75
2022/12/06 11:01:28;;;;;;;3.13;0.70;;;;;;;;;;4981341;28;20038;-75
2022/12/06 11:03:58;;;;;;;2.45;0.63;;;;;;;;;;4984292;28;20114;-75
2022/12/06 11:06:32;;;;;;;3.05;0.80;;;;;;;;;;4980599;28;20109;-75
2022/12/06 11:09:10;;;;;;;4.10;0.63;;;;;;;;;;4986383;28;20086;-75
2022/12/06 11:11:36;;;;;;;1.75;0.63;;;;;;;;;;4979607;28;20160;-75
2022/12/06 11:14:05;;;;;;;2.92;1.02;;;;;;;;;;4984476;28;20057;-75
2022/12/06 11:16:37;;;;;;;6.35;1.08;;;;;;;;;;4985577;28;20421;-76
2022/12/06 11:19:22;;;;;;;4.47;0.88;;;;;;;;;;4985357;28;20046;-76
2022/12/06 11:21:57;;;;;;;3.20;0.80;;;;;;;;;;4979748;28;20069;-76
2022/12/06 11:24:30;;;;;;;1.80;0.88;;;;;;;;;;4980769;28;20049;-77
2022/12/06 11:26:56;;;;;;;1.80;0.50;;;;;;;;;;4983820;28;20022;-76
2022/12/06 11:29:22;;;;;;;3.97;0.80;;;;;;;;;;4982094;28;20121;-76
2022/12/06 11:31:50;;;;;;;3.60;1.00;;;;;;;;;;4983182;28;20022;-76
2022/12/06 11:34:23;;;;;;;5.63;1.30;;;;;;;;;;4986316;28;20038;-76
2022/12/06 11:36:50;;;;;;;3.00;0.90;;;;;;;;;;4994020;28;20054;-76
2022/12/06 11:39:17;;;;;;;4.32;1.08;;;;;;;;;;4994278;28;20085;-76
2022/12/06 11:41:45;;;;;;;5.20;0.70;;;;;;;;;;4994435;28;20034;-76
2022/12/06 11:44:19;;;;;;;4.45;0.55;;;;;;;;;;4994414;28;20033;-76
2022/12/06 11:46:52;;;;;;;4.85;1.00;;;;;;;;;;4993983;28;20038;-76
2022/12/06 11:49:25;;;;;;;3.45;0.65;;;;;;;;;;4994367;28;20038;-76
2022/12/06 11:51:52;;;;;;;2.17;0.80;;;;;;;;;;4991259;28;20042;-76
2022/12/06 11:54:27;;;;;;;3.03;0.60;;;;;;;;;;4977608;28;20398;-76
2022/12/06 11:56:56;;;;;;;3.38;0.95;;;;;;;;;;4983491;28;20037;-75
2022/12/06 11:59:24;;;;;;;2.42;0.77;;;;;;;;;;4985176;28;20453;-75
2022/12/06 12:01:51;;;;;;;7.43;1.33;;;;;;;;;;4985495;28;20041;-75
2022/12/06 12:04:30;;;;;;;4.20;0.80;;;;;;;;;;4984907;28;20110;-75
2022/12/06 12:07:05;;;;;;;6.38;1.20;;;;;;;;;;4974472;28;20027;-74
2022/12/06 12:09:33;;;;;;;5.85;1.48;;;;;;;;;;4978486;28;20038;-75
2022/12/06 12:12:01;;;;;;;4.20;0.93;;;;;;;;;;4974575;28;20454;-74
2022/12/06 12:14:30;;;;;;;1.98;0.80;;;;;;;;;;4975074;28;20114;-75
2022/12/06 12:16:58;;;;;;;1.45;0.65;;;;;;;;;;4974763;28;20031;-74
2022/12/06 12:19:30;;;;;;;2.47;1.05;;;;;;;;;;4974398;28;20031;-75
2022/12/06 12:21:58;;;;;;;3.75;1.15;;;;;;;;;;4974770;28;20077;-75
2022/12/06 12:24:43;;;;;;;4.90;0.80;;;;;;;;;;4974586;28;20556;-75
2022/12/06 12:27:27;;;;;;;3.90;0.70;;;;;;;;;;4974500;28;20037;-75
2022/12/06 12:30:12;;;;;;;3.78;1.05;;;;;;;;;;4974460;28;20031;-75
2022/12/06 12:32:38;;;;;;;1.75;0.50;;;;;;;;;;4974271;28;20070;-74
2022/12/06 12:35:27;;;;;;;2.97;0.82;;;;;;;;;;4974476;28;20026;-75
2022/12/06 12:37:57;;;;;;;3.60;0.50;;;;;;;;;;4979159;28;20098;-75
2022/12/06 12:40:43;;;;;;;2.03;0.55;;;;;;;;;;5007813;28;20025;-74
2022/12/06 12:43:12;;;;;;;1.65;0.40;;;;;;;;;;4973512;28;20034;-75
2022/12/06 12:45:39;;;;;;;4.50;1.20;;;;;;;;;;4973497;28;20027;-74
2022/12/06 12:48:25;;;;;;;4.25;0.70;;;;;;;;;;4973688;28;20054;-75
2022/12/06 12:50:55;;;;;;;3.08;1.10;;;;;;;;;;4977114;28;20041;-74
2022/12/06 12:53:21;;;;;;;;;;;;;;;;;;4977089;28;20545;-74
2022/12/06 12:55:47;;;;;;;1.40;0.60;;;;;;;;;;4977036;28;19985;-75
2022/12/06 12:58:13;;;;;;;1.45;0.50;;;;;;;;;;4977618;28;20038;-75
2022/12/06 13:00:41;;;;;;;2.60;0.50;;;;;;;;;;4977979;28;20082;-75
2022/12/06 13:03:16;;;;;;;3.30;1.20;;;;;;;;;;4977890;28;20027;-75
2022/12/06 13:05:43;;;;;;;2.65;0.60;;;;;;;;;;4977893;28;20081;-75
2022/12/06 13:08:09;;;;;;;3.63;0.90;;;;;;;;;;4977619;28;20550;-75
2022/12/06 13:10:36;;;;;;;2.58;0.85;;;;;;;;;;4980164;28;20106;-75
2022/12/06 13:13:11;;;;;;;2.50;1.05;;;;;;;;;;4994169;28;20114;-75
2022/12/06 13:15:40;;;;;;;2.53;0.70;;;;;;;;;;4977563;28;20034;-75
2022/12/06 13:18:17;;;;;;;2.28;0.70;;;;;;;;;;4977602;28;20031;-75
2022/12/06 13:20:44;;;;;;;0.95;0.50;;;;;;;;;;4977445;28;20031;-75
2022/12/06 13:23:24;;;;;;;4.45;0.65;;;;;;;;;;4977477;28;20389;-75
2022/12/06 13:25:50;;;;;;;;;;;;;;;;;;4985626;28;20072;-75
2022/12/06 13:28:18;;;;;;;1.90;0.65;;;;;;;;;;4977384;28;20324;-75
2022/12/06 13:30:45;;;;;;;4.53;0.77;;;;;;;;;;4985306;28;20485;-75
2022/12/06 13:33:18;;;;;;;4.47;0.82;;;;;;;;;;4996018;28;20114;-75
2022/12/06 13:35:48;;;;;;;3.40;0.50;;;;;;;;;;4996329;28;20064;-75
2022/12/06 13:38:17;;;;;;;2.80;0.90;;;;;;;;;;4996787;28;20105;-75
2022/12/06 13:40:48;;;;;;;3.20;0.93;;;;;;;;;;4996616;28;20457;-75
2022/12/06 13:43:23;;;;;;;1.55;1.10;;;;;;;;;;4996703;28;20033;-75
2022/12/06 13:46:08;;;;;;;2.45;0.50;;;;;;;;;;4996628;28;20031;-75
2022/12/06 13:48:37;;;;;;;2.20;0.60;;;;;;;;;;4996325;28;20048;-75
2022/12/06 13:51:36;;;;;;;2.75;0.45;;;;;;;;;;4996649;28;20030;-75
2022/12/06 13:54:05;;;;;;;1.13;0.70;;;;;;;;;;4996094;28;20052;-75
2022/12/06 13:56:34;;;;;;;3.00;0.77;;;;;;;;;;4996359;28;20057;-75
2022/12/06 13:59:23;;;;;;;3.53;0.60;;;;;;;;;;4996241;28;20022;-75
2022/12/06 14:01:49;;;;;;;2.78;0.65;;;;;;;;;;4995760;28;20368;-75
2022/12/06 14:04:27;;;;;;;3.50;0.80;;;;;;;;;;4996224;28;20537;-75
2022/12/06 14:07:04;;;;;;;0.75;0.45;;;;;;;;;;4996175;28;20026;-75
2022/12/06 14:09:36;;;;;;;2.20;0.47;;;;;;;;;;4995492;28;20593;-76
2022/12/06 14:12:06;;;;;;;2.75;0.45;;;;;;;;;;4977446;28;20027;-75
2022/12/06 14:14:32;;;;;;;;;;;;;;;;;;4977412;28;20065;-76
2022/12/06 14:16:59;;;;;;;1.75;1.00;;;;;;;;;;4985889;28;19957;-76
2022/12/06 14:19:30;;;;;;;2.05;1.70;;;;;;;;;;4984062;28;20030;-76
2022/12/06 14:21:56;;;;;;;2.38;0.80;;;;;;;;;;4983458;28;20035;-76
2022/12/06 14:24:27;;;;;;;3.20;0.52;;;;;;;;;;4988484;28;20031;-76
2022/12/06 14:26:53;;;;;;;4.80;1.60;;;;;;;;;;4984658;28;20042;-75
2022/12/06 14:29:21;;;;;;;3.47;1.10;;;;;;;;;;4984198;28;20034;-76
2022/12/06 14:31:49;;;;;;;2.22;0.63;;;;;;;;;;4995754;28;20038;-76
2022/12/06 14:34:25;;;;;;;2.45;0.85;;;;;;;;;;4995555;28;20027;-76
2022/12/06 14:36:51;;;;;;;2.83;1.10;;;;;;;;;;4995605;28;20513;-75
2022/12/06 14:39:18;;;;;;;3.55;1.10;;;;;;;;;;4995732;28;20018;-76
2022/12/06 14:44:39;;;;;;;3.90;1.33;;;;;;;;;;4984267;28;20065;-75
2022/12/06 14:47:06;;;;;;;5.22;1.67;;;;;;;;;;4987744;28;20109;-76
2022/12/06 14:52:24;;;;;;;1.15;0.82;;;;;;;;;;4983116;28;20556;-76
2022/12/06 14:54:50;;;;;;;2.03;1.00;;;;;;;;;;4983450;28;20018;-76
2022/12/06 14:57:30;;;;;;;2.42;0.98;;;;;;;;;;4985679;28;20102;-76
2022/12/06 15:00:03;;;;;;;1.73;0.70;;;;;;;;;;4983862;28;20047;-75
2022/12/06 15:02:30;;;;;;;3.30;0.85;;;;;;;;;;4981371;28;20110;-75
2022/12/06 15:04:56;;;;;;;3.80;1.20;;;;;;;;;;4977856;28;20015;-76
2022/12/06 15:07:37;;;;;;;1.60;0.90;;;;;;;;;;4975514;28;20041;-76
2022/12/06 15:10:02;;;;;;;;;;;;;;;;;;4975905;28;20034;-75
2022/12/06 15:15:31;;;;;;;5.00;1.42;;;;;;;;;;4975726;28;20045;-76
2022/12/06 15:18:02;;;;;;;3.53;1.00;;;;;;;;;;4975495;28;20031;-75
2022/12/06 15:20:28;;;;;;;3.25;0.57;;;;;;;;;;4975215;28;20030;-76
2022/12/06 15:22:54;;;;;;;5.20;1.73;;;;;;;;;;4975367;28;20038;-75
2022/12/06 15:25:20;;;;;;;9.00;3.33;;;;;;;;;;4975391;28;20071;-75
2022/12/06 15:27:46;;;;;;;6.63;2.75;;;;;;;;;;4993907;28;20033;-75
2022/12/06 15:30:12;;;;;;;6.47;2.00;;;;;;;;;;4994789;28;20594;-76
2022/12/06 15:32:38;;;;;;;4.97;1.67;;;;;;;;;;4994823;28;20030;-76